Time;durP1;ratioP1;P1;durP2;ratioP2;P2;SDS_P1;SDS_P2;PMS_P1;PMS_P2;Temp;Humidity;BMP_temperature;BMP_pressure;BME280_temperature;BME280_humidity;BME280_pressure;Samples;Min_cycle;Max_cycle;Signal;HPM_P1;HPM_P2
2021/04/10 00:00:26;;;;;;;6.54;0.71;;;;;;;11.72;54.47;98820.06;2029034;76;20991;-76
2021/04/10 00:03:28;;;;;;;1.31;0.70;;;;;;;11.70;54.48;98814.91;2030241;79;20224;-75
2021/04/10 00:06:29;;;;;;;1.71;0.60;;;;;;;11.68;54.49;98821.88;2030121;79;20232;-76
2021/04/10 00:09:31;;;;;;;3.67;0.90;;;;;;;11.69;54.64;98820.13;2029704;79;20235;-76
2021/04/10 00:12:33;;;;;;;2.67;0.70;;;;;;;11.69;54.64;98820.13;2029941;79;20173;-76
2021/04/10 00:15:35;;;;;;;2.85;0.70;;;;;;;11.72;54.38;98825.28;2028939;77;20975;-76
2021/04/10 00:18:36;;;;;;;1.67;0.60;;;;;;;11.73;54.34;98824.41;2029733;79;20266;-77
2021/04/10 00:21:38;;;;;;;2.63;0.55;;;;;;;11.76;54.33;98837.34;2029403;79;20616;-76
2021/04/10 00:24:40;;;;;;;1.33;0.61;;;;;;;11.76;54.24;98834.75;2029038;79;20353;-77
2021/04/10 00:27:43;;;;;;;4.04;1.00;;;;;;;11.76;54.21;98846.00;2029972;79;20210;-76
2021/04/10 00:30:44;;;;;;;1.77;0.60;;;;;;;11.76;54.31;98838.19;2028472;77;22691;-76
2021/04/10 00:33:47;;;;;;;1.92;0.80;;;;;;;11.79;54.19;98829.50;2029651;79;20199;-77
2021/04/10 00:36:48;;;;;;;1.88;0.64;;;;;;;11.76;54.46;98842.53;2029966;79;20182;-75
2021/04/10 00:39:51;;;;;;;1.21;0.60;;;;;;;11.78;54.60;98835.56;2030097;79;20306;-77
2021/04/10 00:42:53;;;;;;;1.83;0.60;;;;;;;11.78;54.71;98840.75;2029049;79;20203;-76
2021/04/10 00:45:55;;;;;;;1.98;0.60;;;;;;;11.79;54.84;98845.13;2028627;76;20197;-76
2021/04/10 00:48:56;;;;;;;3.84;0.69;;;;;;;11.79;54.89;98837.31;2030084;79;20763;-77
2021/04/10 00:51:58;;;;;;;2.38;0.60;;;;;;;11.79;54.91;98840.75;2029877;79;20173;-76
2021/04/10 00:55:03;;;;;;;1.51;0.70;;;;;;;11.78;55.13;98843.38;2029307;79;20219;-76
2021/04/10 00:58:05;;;;;;;1.35;0.52;;;;;;;11.76;55.41;98845.13;2029488;79;20174;-76
2021/04/10 01:01:06;;;;;;;2.69;0.70;;;;;;;11.74;55.54;98839.97;2029466;76;20198;-76
2021/04/10 01:04:08;;;;;;;1.84;0.70;;;;;;;11.74;55.93;98831.31;2029798;79;20181;-75
2021/04/10 01:07:10;;;;;;;2.29;0.68;;;;;;;11.74;56.24;98836.50;2029848;79;20211;-76
2021/04/10 01:10:13;;;;;;;2.47;0.63;;;;;;;11.72;56.38;98828.75;2029927;79;20199;-76
2021/04/10 01:13:27;;;;;;;2.40;0.59;;;;;;;11.71;56.63;98829.63;2029935;79;20570;-77
2021/04/10 01:16:34;;;;;;;2.94;0.64;;;;;;;11.71;56.84;98833.97;2029129;76;21978;-76
2021/04/10 01:20:15;;;;;;;2.79;1.38;;;;;;;11.70;57.23;98832.25;2030046;79;20239;-75
2021/04/10 01:23:23;;;;;;;4.16;0.71;;;;;;;11.69;57.37;98833.16;2028945;79;20197;-76
2021/04/10 01:26:24;;;;;;;1.76;0.90;;;;;;;11.66;57.79;98834.03;2029453;79;20211;-76
2021/04/10 01:29:27;;;;;;;1.75;0.94;;;;;;;11.63;58.08;98836.69;2029830;79;20298;-75
2021/04/10 01:32:35;;;;;;;3.41;0.82;;;;;;;11.64;58.21;98840.16;2029951;77;20199;-76
2021/04/10 01:35:40;;;;;;;2.51;0.73;;;;;;;11.64;58.43;98853.16;2029351;79;20177;-76
2021/04/10 01:38:46;;;;;;;1.94;0.63;;;;;;;11.63;58.69;98859.22;2030582;79;20197;-78
2021/04/10 01:41:51;;;;;;;2.96;1.01;;;;;;;11.61;59.32;98859.25;2029153;79;20189;-76
2021/04/10 01:44:57;;;;;;;3.20;0.69;;;;;;;11.44;62.46;98869.94;2029556;79;20628;-76
2021/04/10 01:48:04;;;;;;;2.15;0.64;;;;;;;11.29;65.01;98874.53;2028929;77;20792;-76
2021/04/10 01:51:06;;;;;;;2.06;0.80;;;;;;;11.18;65.90;98865.16;2029821;79;20178;-77
2021/04/10 01:54:08;;;;;;;3.33;0.80;;;;;;;11.09;67.02;98878.28;2030093;79;20174;-76
2021/04/10 01:57:10;;;;;;;1.71;0.84;;;;;;;10.98;68.12;98871.56;2029350;79;20173;-78
2021/04/10 02:00:16;;;;;;;2.65;1.29;;;;;;;10.90;68.54;98877.69;2029065;77;27488;-76
2021/04/10 02:03:19;;;;;;;2.74;0.74;;;;;;;10.76;69.91;98882.22;2030821;79;20193;-76
2021/04/10 02:06:22;;;;;;;2.13;0.84;;;;;;;10.70;70.42;98886.63;2030502;79;20165;-77
2021/04/10 02:09:24;;;;;;;1.38;0.71;;;;;;;10.58;71.48;98893.69;2031139;79;20189;-77
2021/04/10 02:12:27;;;;;;;1.60;0.90;;;;;;;10.51;72.14;98884.28;2030843;79;20217;-77
2021/04/10 02:15:29;;;;;;;2.45;0.80;;;;;;;10.45;72.73;98881.75;2029993;77;22830;-76
2021/04/10 02:18:34;;;;;;;3.34;0.82;;;;;;;10.41;73.08;98874.00;2031172;79;20213;-76
2021/04/10 02:21:38;;;;;;;1.64;0.70;;;;;;;10.38;73.58;98880.09;2031799;79;20933;-78
2021/04/10 02:24:40;;;;;;;4.03;1.15;;;;;;;10.35;74.29;98880.13;2032586;79;20219;-77
2021/04/10 02:27:42;;;;;;;3.91;1.21;;;;;;;10.32;74.85;98879.31;2031942;79;20174;-77
2021/04/10 02:30:43;;;;;;;2.78;0.93;;;;;;;10.33;74.58;98870.66;2033635;76;22339;-77
2021/04/10 02:33:46;;;;;;;1.19;0.86;;;;;;;10.34;74.61;98874.97;2032441;79;20187;-76
2021/04/10 02:36:52;;;;;;;3.49;1.08;;;;;;;10.36;74.82;98878.41;2032174;79;20689;-77
2021/04/10 02:39:54;;;;;;;1.30;0.85;;;;;;;10.33;75.05;98878.44;2031736;79;20282;-77
2021/04/10 02:42:58;;;;;;;2.34;0.80;;;;;;;10.33;75.51;98878.44;2032599;79;20186;-77
2021/04/10 02:46:03;;;;;;;1.64;0.88;;;;;;;10.30;76.15;98879.34;2031050;77;20162;-77
2021/04/10 02:49:10;;;;;;;1.49;0.74;;;;;;;10.30;76.35;98881.94;2032953;79;20966;-78
2021/04/10 02:52:12;;;;;;;3.90;0.90;;;;;;;10.27;76.79;98879.38;2032480;79;20267;-77
2021/04/10 02:55:19;;;;;;;2.72;0.90;;;;;;;10.27;76.75;98881.97;2032337;79;20210;-77
2021/04/10 02:58:22;;;;;;;2.05;0.80;;;;;;;10.26;76.70;98886.31;2031636;79;20223;-77
2021/04/10 03:01:25;;;;;;;2.05;0.93;;;;;;;10.25;76.97;98892.38;2031062;76;24564;-77
2021/04/10 03:04:28;;;;;;;1.94;1.00;;;;;;;10.20;77.83;98896.69;2030415;79;20227;-77
2021/04/10 03:07:30;;;;;;;4.21;0.90;;;;;;;10.13;78.66;98895.06;2030295;79;20209;-77
2021/04/10 03:10:32;;;;;;;2.81;0.77;;;;;;;10.12;78.63;98903.72;2030628;79;20202;-70
2021/04/10 03:13:34;;;;;;;2.53;1.00;;;;;;;10.14;78.26;98899.38;2029245;79;20217;-71
2021/04/10 03:16:36;;;;;;;1.88;0.90;;;;;;;10.08;79.02;98896.84;2031268;77;20299;-70
2021/04/10 03:19:39;;;;;;;1.98;1.00;;;;;;;10.04;79.89;98900.34;2029524;79;20271;-77
2021/04/10 03:22:47;;;;;;;2.00;1.23;;;;;;;9.96;80.76;98900.41;2030091;79;20745;-76
2021/04/10 03:25:48;;;;;;;2.31;0.80;;;;;;;9.96;81.09;98896.97;2029561;79;20170;-76
2021/04/10 03:28:52;;;;;;;6.43;0.93;;;;;;;9.96;81.39;98899.56;2030454;79;20198;-77
2021/04/10 03:31:55;;;;;;;1.85;0.88;;;;;;;9.95;81.51;98901.31;2029773;76;21440;-76
2021/04/10 03:34:57;;;;;;;1.63;1.15;;;;;;;9.92;81.58;98906.53;2030499;79;20190;-76
2021/04/10 03:38:00;;;;;;;1.79;1.00;;;;;;;9.92;81.76;98908.25;2030352;79;20177;-76
2021/04/10 03:41:05;;;;;;;1.27;0.88;;;;;;;9.90;81.90;98913.47;2030627;79;20205;-77
2021/04/10 03:44:07;;;;;;;2.71;1.19;;;;;;;9.92;81.95;98916.03;2030804;79;20166;-77
2021/04/10 03:47:08;;;;;;;3.67;0.93;;;;;;;9.88;82.11;98920.41;2029153;76;20181;-76
2021/04/10 03:50:11;;;;;;;4.63;1.10;;;;;;;9.90;81.96;98929.03;2030161;79;20279;-75
2021/04/10 03:53:13;;;;;;;2.95;1.20;;;;;;;9.89;82.04;98926.44;2029695;79;20193;-77
2021/04/10 03:56:18;;;;;;;2.09;1.00;;;;;;;9.87;82.06;98935.94;2030568;79;20266;-76
2021/04/10 03:59:19;;;;;;;2.06;1.00;;;;;;;9.87;81.95;98929.03;2029959;79;20190;-77
2021/04/10 04:02:34;;;;;;;3.35;0.91;;;;;;;9.88;82.05;98932.50;2029359;76;31456;-76
2021/04/10 04:05:36;;;;;;;1.86;0.91;;;;;;;9.87;82.00;98934.22;2029600;79;20377;-77
2021/04/10 04:08:37;;;;;;;3.33;1.26;;;;;;;9.86;82.09;98926.44;2030337;79;20173;-76
2021/04/10 04:11:39;;;;;;;2.13;1.04;;;;;;;9.82;82.49;98932.53;2030270;79;21025;-77
2021/04/10 04:14:41;;;;;;;2.24;1.02;;;;;;;9.81;82.59;98939.47;2029812;79;20209;-77
2021/04/10 04:17:43;;;;;;;1.76;1.00;;;;;;;9.77;82.75;98937.78;2029327;77;21165;-76
2021/04/10 04:20:44;;;;;;;4.20;1.33;;;;;;;9.75;83.12;98939.53;2030353;79;20310;-77
2021/04/10 04:23:46;;;;;;;2.78;0.98;;;;;;;9.69;83.39;98943.03;2029334;79;20207;-76
2021/04/10 04:26:48;;;;;;;3.04;1.58;;;;;;;9.65;83.48;98950.81;2030166;79;20227;-77
2021/04/10 04:29:51;;;;;;;2.81;1.10;;;;;;;9.59;83.34;98945.69;2029939;79;20197;-78
2021/04/10 04:32:53;;;;;;;2.99;1.25;;;;;;;9.51;83.30;98944.88;2029916;76;25641;-77
2021/04/10 04:35:55;;;;;;;4.10;1.25;;;;;;;9.47;83.27;98950.97;2029835;79;20202;-78
2021/04/10 04:38:56;;;;;;;3.78;1.30;;;;;;;9.45;83.21;98957.88;2031177;79;20181;-78
2021/04/10 04:41:59;;;;;;;3.49;1.10;;;;;;;9.37;83.38;98957.94;2029752;79;20201;-78
2021/04/10 04:45:02;;;;;;;3.79;1.19;;;;;;;9.34;83.49;98961.44;2030250;79;20583;-79
2021/04/10 04:48:04;;;;;;;2.15;1.09;;;;;;;9.34;83.52;98966.63;2030470;77;20189;-77
2021/04/10 04:51:06;;;;;;;1.86;0.84;;;;;;;9.26;83.47;98968.38;2030576;79;20231;-79
2021/04/10 04:54:08;;;;;;;1.80;0.80;;;;;;;9.17;83.34;98971.03;2030703;79;20687;-78
2021/04/10 04:57:09;;;;;;;1.40;0.90;;;;;;;9.12;83.53;98970.16;2030395;79;20181;-78
2021/04/10 05:00:12;;;;;;;3.33;0.98;;;;;;;8.99;83.76;98971.97;2029889;79;20205;-78
2021/04/10 05:03:13;;;;;;;2.17;0.95;;;;;;;8.97;83.84;98980.59;2032089;79;20232;-78
2021/04/10 05:06:15;;;;;;;2.84;1.13;;;;;;;8.90;83.82;98984.09;2030051;79;20206;-79
2021/04/10 05:09:16;;;;;;;1.94;0.90;;;;;;;8.90;84.01;98997.03;2030993;79;20217;-79
2021/04/10 05:12:18;;;;;;;2.49;1.27;;;;;;;8.83;83.98;98996.22;2030917;79;20195;-78
2021/04/10 05:15:20;;;;;;;1.09;0.71;;;;;;;8.77;84.08;99001.41;2031172;76;20257;-80
2021/04/10 05:18:22;;;;;;;1.71;0.89;;;;;;;8.71;83.88;99002.28;2031171;79;20204;-79
2021/04/10 05:21:25;;;;;;;1.24;0.75;;;;;;;8.68;83.87;99011.78;2031552;79;20205;-78
2021/04/10 05:24:27;;;;;;;3.42;0.82;;;;;;;8.67;83.72;99004.91;2030361;79;20970;-78
2021/04/10 05:27:29;;;;;;;1.44;0.75;;;;;;;8.63;83.60;99016.13;2030780;79;20829;-76
2021/04/10 05:30:30;;;;;;;3.60;1.40;;;;;;;8.55;83.77;99020.44;2030625;76;25094;-79
2021/04/10 05:33:32;;;;;;;1.35;0.70;;;;;;;8.52;83.89;99029.09;2031994;79;20800;-78
2021/04/10 05:36:34;;;;;;;1.90;0.94;;;;;;;8.52;83.73;99036.00;2035636;79;20215;-78
2021/04/10 05:39:35;;;;;;;2.17;0.80;;;;;;;8.49;83.72;99044.63;2033395;79;20185;-79
2021/04/10 05:42:38;;;;;;;2.08;0.71;;;;;;;8.47;83.49;99041.19;2034610;79;20194;-80
2021/04/10 05:45:40;;;;;;;2.09;0.56;;;;;;;8.44;83.11;99047.22;2032816;77;31119;-80
2021/04/10 05:48:41;;;;;;;0.91;0.61;;;;;;;8.42;83.05;99046.34;2033082;79;20201;-79
2021/04/10 05:51:43;;;;;;;1.34;0.82;;;;;;;8.40;83.11;99049.78;2032420;79;20247;-79
2021/04/10 05:54:45;;;;;;;1.36;0.50;;;;;;;8.37;82.88;99054.97;2031784;79;20192;-79
2021/04/10 05:57:46;;;;;;;1.46;0.66;;;;;;;8.38;82.99;99052.38;2034077;79;20317;-78
2021/04/10 06:00:48;;;;;;;3.08;0.65;;;;;;;8.36;82.42;99054.13;2030809;76;32462;-79
2021/04/10 06:03:50;;;;;;;0.63;0.57;;;;;;;8.36;82.12;99058.44;2032346;79;20517;-79
2021/04/10 06:06:52;;;;;;;1.45;0.84;;;;;;;8.34;81.95;99053.25;2031773;79;21078;-79
2021/04/10 06:09:53;;;;;;;2.28;0.74;;;;;;;8.31;81.30;99058.41;2031518;79;20162;-79
2021/04/10 06:12:55;;;;;;;2.34;0.56;;;;;;;8.30;80.79;99054.09;2031102;79;20351;-79
2021/04/10 06:15:57;;;;;;;2.24;0.56;;;;;;;8.33;80.69;99059.25;2029478;76;21572;-78
2021/04/10 06:18:59;;;;;;;1.24;0.60;;;;;;;8.35;80.63;99054.97;2032327;79;20699;-80
2021/04/10 06:22:00;;;;;;;1.02;0.50;;;;;;;8.37;80.33;99053.25;2034391;79;20191;-79
2021/04/10 06:25:03;;;;;;;1.41;0.68;;;;;;;8.37;80.05;99055.84;2031375;79;20223;-79
2021/04/10 06:28:05;;;;;;;1.52;0.60;;;;;;;8.33;79.16;99046.31;2035198;79;20201;-81
2021/04/10 06:31:07;;;;;;;0.66;0.50;;;;;;;8.36;79.17;99037.72;2031372;76;21892;-77
2021/04/10 06:34:09;;;;;;;1.71;0.44;;;;;;;8.33;78.75;99051.50;2031395;79;20590;-78
2021/04/10 06:37:11;;;;;;;1.08;0.52;;;;;;;8.31;78.10;99044.63;2030852;79;20898;-77
2021/04/10 06:40:13;;;;;;;1.15;0.56;;;;;;;8.24;77.66;99050.63;2030723;79;20221;-75
2021/04/10 06:43:16;;;;;;;2.63;1.05;;;;;;;8.21;77.53;99051.50;2029682;79;20197;-74
2021/04/10 06:46:18;;;;;;;2.34;0.50;;;;;;;8.27;78.12;99058.41;2030830;76;23078;-75
2021/04/10 06:49:20;;;;;;;1.14;0.60;;;;;;;8.25;77.93;99050.63;2035413;79;20195;-78
2021/04/10 06:52:22;;;;;;;2.50;0.66;;;;;;;8.25;77.98;99060.97;2031062;79;20238;-77
2021/04/10 06:55:24;;;;;;;2.42;0.60;;;;;;;8.18;77.76;99049.78;2032516;79;20915;-78
2021/04/10 06:58:43;;;;;;;1.48;0.60;;;;;;;8.16;78.36;99046.34;2028180;79;20211;-78
2021/04/10 07:01:45;;;;;;;1.96;0.41;;;;;;;8.23;78.38;99049.78;2031212;76;20993;-77
2021/04/10 07:04:47;;;;;;;0.50;0.44;;;;;;;8.21;78.06;99051.50;2029369;79;20204;-77
2021/04/10 07:07:50;;;;;;;1.34;0.60;;;;;;;8.23;78.52;99054.09;2032592;79;20809;-75
2021/04/10 07:10:52;;;;;;;2.33;0.59;;;;;;;8.21;77.99;99060.97;2030266;79;20223;-75
2021/04/10 07:13:55;;;;;;;1.85;0.63;;;;;;;8.23;78.05;99060.13;2032831;79;20362;-78
2021/04/10 07:16:57;;;;;;;1.31;0.34;;;;;;;8.24;76.97;99068.72;2031648;77;20329;-78
2021/04/10 07:19:59;;;;;;;1.39;0.64;;;;;;;8.21;77.03;99063.56;2031678;79;20787;-77
2021/04/10 07:23:01;;;;;;;1.84;0.51;;;;;;;8.22;77.38;99062.72;2029445;79;20201;-79
2021/04/10 07:26:03;;;;;;;1.95;0.50;;;;;;;8.26;77.08;99067.91;2030677;79;20276;-78
2021/04/10 07:29:05;;;;;;;1.35;0.70;;;;;;;8.26;77.90;99061.84;2030878;79;20297;-78
2021/04/10 07:32:31;;;;;;;1.17;0.60;;;;;;;8.28;77.56;99067.91;2029226;76;20215;-78
2021/04/10 07:35:40;;;;;;;1.27;0.93;;;;;;;8.29;76.85;99061.88;2029238;79;20386;-77
2021/04/10 07:38:43;;;;;;;2.07;0.70;;;;;;;8.28;76.94;99063.59;2032137;79;20322;-78
2021/04/10 07:41:45;;;;;;;2.94;0.50;;;;;;;8.25;77.14;99070.47;2030614;79;20158;-78
2021/04/10 07:44:47;;;;;;;0.89;0.69;;;;;;;8.29;77.22;99075.66;2029995;79;20193;-77
2021/04/10 07:47:49;;;;;;;2.39;0.80;;;;;;;8.29;77.53;99077.38;2030035;76;20194;-78
2021/04/10 07:50:55;;;;;;;1.46;0.63;;;;;;;8.32;77.48;99065.31;2030253;79;20264;-78
2021/04/10 07:53:58;;;;;;;0.60;0.60;;;;;;;8.35;77.44;99070.50;2029608;79;20327;-77
2021/04/10 07:57:05;;;;;;;1.00;0.50;;;;;;;8.40;76.61;99073.06;2029881;79;20323;-77
2021/04/10 08:00:07;;;;;;;3.28;0.70;;;;;;;8.52;77.00;99082.56;2029796;79;20230;-76
2021/04/10 08:03:34;;;;;;;2.56;0.50;;;;;;;8.59;76.11;99081.69;2029545;76;40200;-76
2021/04/10 08:06:36;;;;;;;1.21;0.50;;;;;;;8.69;76.06;99080.81;2028799;79;20199;-76
2021/04/10 08:09:39;;;;;;;1.05;0.50;;;;;;;8.74;76.46;99079.06;2030457;79;20174;-77
2021/04/10 08:12:42;;;;;;;0.50;0.50;;;;;;;8.79;75.87;99079.91;2032685;79;20762;-77
2021/04/10 08:15:44;;;;;;;0.45;0.43;;;;;;;8.81;74.82;99080.78;2030368;77;23199;-77
2021/04/10 08:18:48;;;;;;;2.36;0.69;;;;;;;8.81;74.44;99082.53;2032681;79;20195;-76
2021/04/10 08:21:50;;;;;;;3.51;0.60;;;;;;;8.86;74.90;99081.63;2032669;79;20567;-77
2021/04/10 08:24:52;;;;;;;1.02;0.44;;;;;;;8.85;74.11;99086.81;2031278;79;20173;-78
2021/04/10 08:27:57;;;;;;;1.14;0.59;;;;;;;8.82;74.06;99079.06;2031891;79;20199;-78
2021/04/10 08:30:59;;;;;;;2.64;0.70;;;;;;;8.85;74.12;99077.31;2031724;76;24460;-76
2021/04/10 08:34:01;;;;;;;0.57;0.50;;;;;;;8.89;74.48;99079.03;2031331;79;20177;-76
2021/04/10 08:37:08;;;;;;;2.66;0.71;;;;;;;8.90;75.34;99091.09;2032026;79;20239;-78
2021/04/10 08:40:11;;;;;;;0.50;0.50;;;;;;;8.94;75.03;99087.63;2032523;79;20196;-76
2021/04/10 08:43:13;;;;;;;0.61;0.41;;;;;;;8.97;74.28;99084.19;2032197;79;20193;-78
2021/04/10 08:46:18;;;;;;;1.98;0.85;;;;;;;8.98;73.43;99088.53;2031336;77;20358;-76
2021/04/10 08:49:20;;;;;;;1.63;0.50;;;;;;;9.02;73.51;99085.03;2031958;79;20233;-76
2021/04/10 08:52:30;;;;;;;1.17;0.60;;;;;;;9.02;74.01;99085.91;2031958;79;20170;-76
2021/04/10 08:55:38;;;;;;;2.03;0.46;;;;;;;9.07;74.67;99088.47;2031358;79;20181;-76
2021/04/10 08:58:40;;;;;;;1.09;0.60;;;;;;;9.11;73.73;99092.78;2031737;79;20177;-76
2021/04/10 09:01:43;;;;;;;1.35;0.50;;;;;;;9.14;73.44;99089.31;2029475;76;25884;-76
2021/04/10 09:04:58;;;;;;;0.60;0.60;;;;;;;9.19;73.43;99093.63;2029474;79;20739;-76
2021/04/10 09:08:00;;;;;;;0.49;0.43;;;;;;;9.16;72.51;99091.06;2029388;79;21020;-76
2021/04/10 09:11:07;;;;;;;1.34;0.60;;;;;;;9.13;73.27;99083.25;2029803;79;20169;-76
2021/04/10 09:14:10;;;;;;;1.35;0.50;;;;;;;9.16;73.45;99087.59;2029773;79;20174;-76
2021/04/10 09:17:11;;;;;;;0.55;0.50;;;;;;;9.20;73.76;99084.97;2029191;77;20315;-77
2021/04/10 09:20:13;;;;;;;0.64;0.44;;;;;;;9.25;73.58;99082.38;2029502;79;20707;-76
2021/04/10 09:23:24;;;;;;;1.15;0.50;;;;;;;9.28;73.13;99088.38;2029960;79;20174;-76
2021/04/10 09:26:26;;;;;;;0.76;0.46;;;;;;;9.27;73.52;99088.41;2029407;79;20618;-77
2021/04/10 09:29:55;;;;;;;0.75;0.40;;;;;;;9.29;73.69;99084.94;2030280;79;20174;-76
2021/04/10 09:32:57;;;;;;;;;;;;;;;9.33;73.86;99089.22;2028973;77;22622;-75
2021/04/10 09:35:59;;;;;;;1.19;0.56;;;;;;;9.36;74.95;99084.06;2029938;79;20073;-75
2021/04/10 09:39:00;;;;;;;0.68;0.50;;;;;;;9.31;74.16;99085.78;2030311;79;20739;-75
2021/04/10 09:42:02;;;;;;;1.48;0.56;;;;;;;9.33;74.89;99083.19;2029946;79;20174;-76
2021/04/10 09:45:05;;;;;;;0.96;0.52;;;;;;;9.36;74.96;99078.88;2029689;79;20173;-76
2021/04/10 09:48:10;;;;;;;0.94;0.41;;;;;;;9.41;75.17;99081.44;2030336;77;20746;-77
2021/04/10 09:51:13;;;;;;;1.05;0.69;;;;;;;9.49;75.06;99082.25;2030256;79;20566;-76
2021/04/10 09:54:22;;;;;;;0.51;0.51;;;;;;;9.53;75.39;99077.94;2030849;79;20173;-76
2021/04/10 09:57:24;;;;;;;1.86;0.50;;;;;;;9.56;75.22;99075.31;2030976;79;20588;-75
2021/04/10 10:00:26;;;;;;;1.01;0.50;;;;;;;9.62;75.07;99073.53;2028802;76;20211;-77
2021/04/10 10:03:28;;;;;;;0.49;0.49;;;;;;;9.71;75.78;99071.78;2030282;79;20177;-76
2021/04/10 10:06:46;;;;;;;0.43;0.40;;;;;;;9.79;76.08;99070.84;2029872;79;20983;-77
2021/04/10 10:10:07;;;;;;;0.57;0.36;;;;;;;9.86;76.36;99075.09;2030763;79;20239;-77
2021/04/10 10:13:12;;;;;;;0.70;0.50;;;;;;;9.77;75.14;99061.38;2031141;79;20225;-77
2021/04/10 10:16:22;;;;;;;0.85;0.36;;;;;;;9.79;75.57;99069.97;2029940;76;20644;-77
2021/04/10 10:19:24;;;;;;;0.84;0.43;;;;;;;9.77;76.60;99076.91;2031756;79;20581;-77
2021/04/10 10:22:28;;;;;;;1.75;0.50;;;;;;;9.68;75.15;99075.22;2030531;79;20195;-77
2021/04/10 10:25:30;;;;;;;1.96;0.50;;;;;;;9.66;76.13;99066.59;2030201;79;20197;-77
2021/04/10 10:28:33;;;;;;;2.85;0.50;;;;;;;9.65;76.69;99075.25;2029006;79;20298;-76
2021/04/10 10:31:54;;;;;;;1.38;0.50;;;;;;;9.60;76.26;99069.25;2029207;77;25410;-76
2021/04/10 10:35:05;;;;;;;0.64;0.46;;;;;;;9.55;76.73;99064.09;2030458;79;20782;-76
2021/04/10 10:38:11;;;;;;;1.23;0.60;;;;;;;9.55;77.17;99058.03;2030290;79;20158;-77
2021/04/10 10:41:15;;;;;;;0.89;0.40;;;;;;;9.50;77.22;99063.22;2030870;79;20153;-77
2021/04/10 10:44:20;;;;;;;1.89;0.46;;;;;;;9.50;77.74;99057.19;2029388;79;20215;-77
2021/04/10 10:47:25;;;;;;;0.73;0.50;;;;;;;9.49;77.76;99056.31;2030860;77;21398;-77
2021/04/10 10:50:28;;;;;;;1.77;1.44;;;;;;;9.51;78.02;99057.19;2030191;79;20205;-77
2021/04/10 10:53:48;;;;;;;0.68;0.59;;;;;;;9.58;78.49;99047.66;2029917;79;20170;-76
2021/04/10 10:56:49;;;;;;;0.69;0.50;;;;;;;9.67;78.32;99045.84;2030811;79;20199;-76
2021/04/10 10:59:51;;;;;;;1.06;0.45;;;;;;;9.67;76.93;99051.03;2030348;79;20232;-77
2021/04/10 11:02:53;;;;;;;2.39;0.60;;;;;;;9.69;77.32;99038.94;2028962;77;26040;-78
2021/04/10 11:05:55;;;;;;;0.86;0.50;;;;;;;9.75;77.02;99032.84;2031069;79;20206;-78
2021/04/10 11:09:03;;;;;;;1.44;0.50;;;;;;;9.82;75.96;99033.66;2030716;79;20173;-77
2021/04/10 11:12:11;;;;;;;2.00;0.64;;;;;;;9.87;75.28;99035.34;2030419;79;20166;-78
2021/04/10 11:15:13;;;;;;;2.63;0.60;;;;;;;9.88;74.91;99031.03;2029562;79;21486;-76
2021/04/10 11:18:29;;;;;;;1.00;0.60;;;;;;;9.85;74.77;99031.03;2030760;79;20184;-78
2021/04/10 11:21:31;;;;;;;1.30;0.71;;;;;;;9.87;75.90;99024.09;2030531;79;20222;-76
2021/04/10 11:24:38;;;;;;;1.75;1.14;;;;;;;9.92;76.14;99018.03;2031194;79;20174;-77
2021/04/10 11:27:41;;;;;;;2.08;0.50;;;;;;;10.02;75.40;99016.22;2030024;79;20222;-76
2021/04/10 11:31:08;;;;;;;3.16;0.41;;;;;;;10.10;74.52;99004.06;2030268;77;20203;-77
2021/04/10 11:34:35;;;;;;;1.39;0.60;;;;;;;10.21;74.13;99010.03;2030805;79;20182;-77
2021/04/10 11:37:39;;;;;;;1.17;0.52;;;;;;;10.26;73.31;99004.81;2030318;79;20178;-76
2021/04/10 11:40:43;;;;;;;2.45;0.75;;;;;;;10.28;72.86;99005.66;2030617;79;20170;-76
2021/04/10 11:43:53;;;;;;;1.34;0.50;;;;;;;10.32;72.50;98998.69;2030569;79;20203;-78
2021/04/10 11:47:00;;;;;;;2.24;0.70;;;;;;;10.34;71.30;99004.72;2029179;77;53541;-77
2021/04/10 11:50:15;;;;;;;1.23;0.75;;;;;;;10.33;69.88;99001.28;2031164;79;20179;-77
2021/04/10 11:53:21;;;;;;;1.80;0.50;;;;;;;10.32;71.02;98998.69;2030926;79;20373;-76
2021/04/10 11:56:27;;;;;;;1.33;0.49;;;;;;;10.32;70.76;98994.34;2030382;79;20766;-76
2021/04/10 11:59:34;;;;;;;2.33;0.82;;;;;;;10.36;70.54;98988.25;2030151;79;20221;-76
2021/04/10 12:02:39;;;;;;;2.99;0.52;;;;;;;10.39;68.74;98990.81;2029055;77;23897;-76
2021/04/10 12:05:43;;;;;;;0.89;0.49;;;;;;;10.45;68.44;98989.91;2029087;79;20223;-77
2021/04/10 12:08:44;;;;;;;2.41;0.60;;;;;;;10.57;69.19;98982.84;2030136;79;20211;-76
2021/04/10 12:11:46;;;;;;;1.71;0.77;;;;;;;10.64;68.00;98986.25;2030040;79;20213;-77
2021/04/10 12:14:47;;;;;;;2.90;1.19;;;;;;;10.72;66.80;98976.63;2029535;79;20185;-76
2021/04/10 12:17:49;;;;;;;3.39;0.93;;;;;;;10.83;65.72;98966.13;2028884;76;22110;-77
2021/04/10 12:20:52;;;;;;;3.22;1.25;;;;;;;10.90;65.20;98970.34;2030311;79;20207;-76
2021/04/10 12:23:55;;;;;;;2.56;1.20;;;;;;;11.02;66.42;98980.59;2029864;79;20211;-76
2021/04/10 12:26:57;;;;;;;2.30;1.13;;;;;;;11.04;64.60;98972.78;2029718;79;20270;-75
2021/04/10 12:29:59;;;;;;;2.11;0.80;;;;;;;11.13;65.29;98976.13;2030731;79;21057;-76
2021/04/10 12:33:02;;;;;;;2.24;0.94;;;;;;;11.20;65.17;98977.75;2023758;77;21111;-76
2021/04/10 12:36:04;;;;;;;2.83;1.00;;;;;;;11.10;61.52;98973.53;2024681;79;20215;-77
2021/04/10 12:39:06;;;;;;;2.21;0.90;;;;;;;11.09;60.97;98970.97;2025473;79;20214;-75
2021/04/10 12:42:07;;;;;;;3.31;0.65;;;;;;;11.10;62.04;98975.28;2024895;79;20194;-77
2021/04/10 12:45:10;;;;;;;1.50;0.70;;;;;;;11.04;60.74;98975.38;2023813;79;20174;-75
2021/04/10 12:48:11;;;;;;;1.84;1.09;;;;;;;11.03;61.08;98968.44;2030208;76;20219;-75
2021/04/10 12:51:14;;;;;;;1.70;0.81;;;;;;;11.08;62.79;98971.84;2029931;79;20830;-76
2021/04/10 12:54:15;;;;;;;2.06;0.60;;;;;;;11.10;65.19;98975.28;2030253;79;20177;-75
2021/04/10 12:57:17;;;;;;;1.27;0.64;;;;;;;11.03;65.10;98968.44;2030403;79;20173;-74
2021/04/10 13:00:20;;;;;;;0.93;0.61;;;;;;;10.84;62.80;98975.63;2029385;77;20541;-75
2021/04/10 13:03:22;;;;;;;1.11;0.74;;;;;;;10.76;63.02;98965.31;2029943;79;20185;-76
2021/04/10 13:06:25;;;;;;;1.58;0.59;;;;;;;10.75;62.86;98971.38;2029931;79;20161;-77
2021/04/10 13:09:26;;;;;;;2.17;0.65;;;;;;;10.73;62.77;98964.50;2030332;79;20633;-77
2021/04/10 13:12:28;;;;;;;1.56;0.50;;;;;;;10.71;63.78;98961.91;2029907;79;20173;-77
2021/04/10 13:15:31;;;;;;;1.71;0.60;;;;;;;10.62;65.92;98963.78;2029099;77;20285;-76
2021/04/10 13:18:33;;;;;;;0.47;0.44;;;;;;;10.62;64.96;98968.97;2029604;79;20191;-76
2021/04/10 13:21:35;;;;;;;1.73;0.60;;;;;;;10.60;65.20;98966.41;2030391;79;20197;-75
2021/04/10 13:24:36;;;;;;;1.58;0.50;;;;;;;10.44;64.99;98964.84;2029336;79;20170;-76
2021/04/10 13:27:40;;;;;;;1.19;0.55;;;;;;;10.40;65.98;98965.72;2029149;79;20177;-73
2021/04/10 13:30:42;;;;;;;2.38;0.69;;;;;;;10.35;66.44;98967.50;2029727;77;26210;-72
2021/04/10 13:33:44;;;;;;;1.52;0.60;;;;;;;10.29;67.48;98966.72;2029640;79;20174;-75
2021/04/10 13:36:46;;;;;;;1.46;0.61;;;;;;;10.28;68.75;98966.72;2029806;79;20570;-75
2021/04/10 13:39:48;;;;;;;0.68;0.50;;;;;;;10.26;70.80;98960.69;2030137;79;20602;-75
2021/04/10 13:42:49;;;;;;;1.19;0.60;;;;;;;10.27;71.36;98955.50;2029878;79;20203;-75
2021/04/10 13:45:51;;;;;;;1.31;0.60;;;;;;;10.24;70.61;98958.13;2028602;77;20605;-74
2021/04/10 13:48:52;;;;;;;1.21;0.43;;;;;;;10.26;71.60;98946.00;2029405;79;20181;-75
2021/04/10 13:51:55;;;;;;;3.63;0.60;;;;;;;10.22;71.68;98940.81;2029742;79;20227;-75
2021/04/10 13:54:56;;;;;;;0.65;0.50;;;;;;;10.18;71.33;98937.38;2029466;79;20166;-75
2021/04/10 13:57:59;;;;;;;0.99;0.50;;;;;;;10.19;71.50;98936.50;2029605;79;20211;-75
2021/04/10 14:01:03;;;;;;;1.16;0.70;;;;;;;10.23;71.26;98927.88;2028520;76;20283;-77
2021/04/10 14:05:00;;;;;;;1.64;0.54;;;;;;;10.31;71.75;98924.31;2029895;79;20217;-76
2021/04/10 14:08:22;;;;;;;1.86;0.65;;;;;;;10.38;72.20;98918.16;2029881;79;20724;-77
2021/04/10 14:11:25;;;;;;;1.74;0.80;;;;;;;10.41;71.57;98905.16;2029600;79;20216;-77
2021/04/10 14:14:27;;;;;;;2.49;0.52;;;;;;;10.46;71.36;98904.25;2031469;79;20655;-76
2021/04/10 14:17:29;;;;;;;1.59;0.70;;;;;;;10.56;71.68;98910.16;2028410;76;21965;-77
2021/04/10 14:20:32;;;;;;;0.82;0.60;;;;;;;10.66;72.39;98905.75;2031391;79;20170;-77
2021/04/10 14:23:39;;;;;;;1.60;0.51;;;;;;;10.73;72.04;98896.97;2030257;79;20993;-77
2021/04/10 14:26:41;;;;;;;2.28;0.60;;;;;;;10.88;71.88;98889.00;2030742;79;20669;-76
2021/04/10 14:29:43;;;;;;;0.90;0.50;;;;;;;10.97;71.62;98878.47;2030667;79;20622;-75
2021/04/10 14:32:44;;;;;;;0.96;0.49;;;;;;;11.03;70.57;98867.13;2029504;76;21170;-77